sensor_id;sensor_type;location;lat;lon;timestamp;P1;durP1;ratioP1;P2;durP2;ratioP2
70800;SDS011;59616;52.170;5.386;2023-02-28T00:00:00;6.55;;;2.15;;
70800;SDS011;59616;52.170;5.386;2023-02-28T00:02:29;8.90;;;2.63;;
70800;SDS011;59616;52.170;5.386;2023-02-28T00:07:30;8.25;;;2.17;;
70800;SDS011;59616;52.170;5.386;2023-02-28T00:09:57;6.85;;;2.38;;
70800;SDS011;59616;52.170;5.386;2023-02-28T00:12:24;9.30;;;2.70;;
70800;SDS011;59616;52.170;5.386;2023-02-28T00:14:51;8.45;;;2.20;;
70800;SDS011;59616;52.170;5.386;2023-02-28T00:17:19;9.68;;;2.50;;
70800;SDS011;59616;52.170;5.386;2023-02-28T00:19:48;12.20;;;2.75;;
70800;SDS011;59616;52.170;5.386;2023-02-28T00:22:19;8.07;;;2.10;;
70800;SDS011;59616;52.170;5.386;2023-02-28T00:24:47;7.38;;;2.15;;
70800;SDS011;59616;52.170;5.386;2023-02-28T00:27:14;10.05;;;2.38;;
70800;SDS011;59616;52.170;5.386;2023-02-28T00:29:41;5.90;;;1.83;;
70800;SDS011;59616;52.170;5.386;2023-02-28T00:32:09;6.90;;;2.25;;
70800;SDS011;59616;52.170;5.386;2023-02-28T00:34:36;5.95;;;2.25;;
70800;SDS011;59616;52.170;5.386;2023-02-28T00:37:07;7.90;;;2.28;;
70800;SDS011;59616;52.170;5.386;2023-02-28T00:39:35;8.27;;;2.35;;
70800;SDS011;59616;52.170;5.386;2023-02-28T00:42:03;10.45;;;1.90;;
70800;SDS011;59616;52.170;5.386;2023-02-28T00:44:30;10.50;;;2.50;;
70800;SDS011;59616;52.170;5.386;2023-02-28T00:46:58;5.53;;;2.03;;
70800;SDS011;59616;52.170;5.386;2023-02-28T00:49:26;9.60;;;2.25;;
70800;SDS011;59616;52.170;5.386;2023-02-28T00:51:55;8.90;;;2.30;;
70800;SDS011;59616;52.170;5.386;2023-02-28T00:54:25;8.20;;;2.35;;
70800;SDS011;59616;52.170;5.386;2023-02-28T00:56:52;9.63;;;2.00;;
70800;SDS011;59616;52.170;5.386;2023-02-28T00:59:19;9.80;;;2.33;;
70800;SDS011;59616;52.170;5.386;2023-02-28T01:01:46;7.53;;;2.10;;
70800;SDS011;59616;52.170;5.386;2023-02-28T01:04:14;9.32;;;2.13;;
70800;SDS011;59616;52.170;5.386;2023-02-28T01:06:41;6.65;;;2.28;;
70800;SDS011;59616;52.170;5.386;2023-02-28T01:09:09;7.60;;;2.20;;
70800;SDS011;59616;52.170;5.386;2023-02-28T01:11:37;6.68;;;2.30;;
70800;SDS011;59616;52.170;5.386;2023-02-28T01:14:04;9.60;;;2.25;;
70800;SDS011;59616;52.170;5.386;2023-02-28T01:16:31;5.90;;;2.10;;
70800;SDS011;59616;52.170;5.386;2023-02-28T01:21:25;7.47;;;2.10;;
70800;SDS011;59616;52.170;5.386;2023-02-28T01:23:55;6.28;;;1.92;;
70800;SDS011;59616;52.170;5.386;2023-02-28T01:26:23;6.75;;;2.05;;
70800;SDS011;59616;52.170;5.386;2023-02-28T01:28:50;5.72;;;1.90;;
70800;SDS011;59616;52.170;5.386;2023-02-28T01:31:19;5.85;;;2.20;;
70800;SDS011;59616;52.170;5.386;2023-02-28T01:33:47;7.57;;;2.33;;
70800;SDS011;59616;52.170;5.386;2023-02-28T01:36:16;5.93;;;1.90;;
70800;SDS011;59616;52.170;5.386;2023-02-28T01:38:44;6.10;;;2.40;;
70800;SDS011;59616;52.170;5.386;2023-02-28T01:41:16;9.20;;;2.55;;
70800;SDS011;59616;52.170;5.386;2023-02-28T01:46:11;6.75;;;2.25;;
70800;SDS011;59616;52.170;5.386;2023-02-28T01:48:40;10.13;;;2.70;;
70800;SDS011;59616;52.170;5.386;2023-02-28T01:51:09;7.95;;;2.40;;
70800;SDS011;59616;52.170;5.386;2023-02-28T01:53:39;6.97;;;2.30;;
70800;SDS011;59616;52.170;5.386;2023-02-28T01:56:10;7.20;;;2.35;;
70800;SDS011;59616;52.170;5.386;2023-02-28T01:58:39;4.85;;;2.10;;
70800;SDS011;59616;52.170;5.386;2023-02-28T02:01:06;6.03;;;2.35;;
70800;SDS011;59616;52.170;5.386;2023-02-28T02:03:33;7.57;;;2.25;;
70800;SDS011;59616;52.170;5.386;2023-02-28T02:06:02;9.88;;;2.28;;
70800;SDS011;59616;52.170;5.386;2023-02-28T02:08:29;9.35;;;2.38;;
70800;SDS011;59616;52.170;5.386;2023-02-28T02:11:00;6.72;;;2.30;;
70800;SDS011;59616;52.170;5.386;2023-02-28T02:16:06;8.35;;;2.50;;
70800;SDS011;59616;52.170;5.386;2023-02-28T02:18:50;6.25;;;2.45;;
70800;SDS011;59616;52.170;5.386;2023-02-28T02:24:26;5.82;;;2.05;;
70800;SDS011;59616;52.170;5.386;2023-02-28T02:42:46;8.90;;;2.80;;
70800;SDS011;59616;52.170;5.386;2023-02-28T02:45:28;11.38;;;2.60;;
70800;SDS011;59616;52.170;5.386;2023-02-28T02:47:56;10.02;;;2.65;;
70800;SDS011;59616;52.170;5.386;2023-02-28T02:50:33;8.57;;;2.45;;
70800;SDS011;59616;52.170;5.386;2023-02-28T02:53:02;9.85;;;2.50;;
70800;SDS011;59616;52.170;5.386;2023-02-28T02:55:31;7.15;;;2.40;;
70800;SDS011;59616;52.170;5.386;2023-02-28T02:58:01;8.02;;;2.85;;
70800;SDS011;59616;52.170;5.386;2023-02-28T03:00:31;9.27;;;2.53;;
70800;SDS011;59616;52.170;5.386;2023-02-28T03:02:59;7.68;;;2.58;;
70800;SDS011;59616;52.170;5.386;2023-02-28T03:05:50;9.15;;;2.63;;
70800;SDS011;59616;52.170;5.386;2023-02-28T03:08:15;8.38;;;2.60;;
70800;SDS011;59616;52.170;5.386;2023-02-28T03:10:43;7.68;;;2.60;;
70800;SDS011;59616;52.170;5.386;2023-02-28T03:13:19;8.15;;;2.67;;
70800;SDS011;59616;52.170;5.386;2023-02-28T03:26:22;9.98;;;2.28;;
70800;SDS011;59616;52.170;5.386;2023-02-28T03:29:02;7.25;;;2.67;;
70800;SDS011;59616;52.170;5.386;2023-02-28T03:31:30;10.85;;;2.80;;
70800;SDS011;59616;52.170;5.386;2023-02-28T03:34:04;9.60;;;4.03;;
70800;SDS011;59616;52.170;5.386;2023-02-28T03:36:35;9.80;;;2.88;;
70800;SDS011;59616;52.170;5.386;2023-02-28T03:39:12;8.45;;;2.78;;
70800;SDS011;59616;52.170;5.386;2023-02-28T03:42:00;10.55;;;2.63;;
70800;SDS011;59616;52.170;5.386;2023-02-28T03:44:29;7.50;;;2.60;;
70800;SDS011;59616;52.170;5.386;2023-02-28T03:47:02;8.23;;;2.70;;
70800;SDS011;59616;52.170;5.386;2023-02-28T03:49:31;9.15;;;2.67;;
70800;SDS011;59616;52.170;5.386;2023-02-28T03:52:00;8.07;;;2.83;;
70800;SDS011;59616;52.170;5.386;2023-02-28T03:54:30;6.97;;;2.47;;
70800;SDS011;59616;52.170;5.386;2023-02-28T03:57:06;9.82;;;3.35;;
70800;SDS011;59616;52.170;5.386;2023-02-28T03:59:57;10.90;;;2.70;;
70800;SDS011;59616;52.170;5.386;2023-02-28T04:02:23;8.20;;;2.50;;
70800;SDS011;59616;52.170;5.386;2023-02-28T04:04:50;9.35;;;3.10;;
70800;SDS011;59616;52.170;5.386;2023-02-28T04:07:17;10.13;;;3.03;;
70800;SDS011;59616;52.170;5.386;2023-02-28T04:09:44;9.52;;;2.85;;
70800;SDS011;59616;52.170;5.386;2023-02-28T04:12:11;9.23;;;3.03;;
70800;SDS011;59616;52.170;5.386;2023-02-28T04:14:39;8.20;;;2.50;;
70800;SDS011;59616;52.170;5.386;2023-02-28T04:19:32;9.55;;;2.70;;
70800;SDS011;59616;52.170;5.386;2023-02-28T04:22:00;9.90;;;2.90;;
70800;SDS011;59616;52.170;5.386;2023-02-28T04:24:27;8.25;;;2.67;;
70800;SDS011;59616;52.170;5.386;2023-02-28T04:26:55;7.45;;;2.30;;
70800;SDS011;59616;52.170;5.386;2023-02-28T04:31:53;5.75;;;1.98;;
70800;SDS011;59616;52.170;5.386;2023-02-28T04:34:20;9.68;;;2.70;;
70800;SDS011;59616;52.170;5.386;2023-02-28T04:36:48;8.45;;;2.30;;
70800;SDS011;59616;52.170;5.386;2023-02-28T04:39:35;6.68;;;1.70;;
70800;SDS011;59616;52.170;5.386;2023-02-28T04:42:03;5.95;;;1.70;;
70800;SDS011;59616;52.170;5.386;2023-02-28T04:44:31;7.13;;;2.03;;
70800;SDS011;59616;52.170;5.386;2023-02-28T04:46:58;4.93;;;1.90;;
70800;SDS011;59616;52.170;5.386;2023-02-28T04:49:25;4.93;;;1.80;;
70800;SDS011;59616;52.170;5.386;2023-02-28T04:51:53;5.38;;;1.88;;
70800;SDS011;59616;52.170;5.386;2023-02-28T04:54:20;7.40;;;2.40;;
70800;SDS011;59616;52.170;5.386;2023-02-28T04:56:47;6.07;;;1.70;;
70800;SDS011;59616;52.170;5.386;2023-02-28T04:59:16;7.45;;;2.03;;
70800;SDS011;59616;52.170;5.386;2023-02-28T05:01:45;7.32;;;1.77;;
70800;SDS011;59616;52.170;5.386;2023-02-28T05:04:13;4.82;;;1.75;;
70800;SDS011;59616;52.170;5.386;2023-02-28T05:06:40;5.72;;;2.22;;
70800;SDS011;59616;52.170;5.386;2023-02-28T05:09:07;5.53;;;1.92;;
70800;SDS011;59616;52.170;5.386;2023-02-28T05:11:37;7.05;;;2.08;;
70800;SDS011;59616;52.170;5.386;2023-02-28T05:14:06;9.30;;;2.00;;
70800;SDS011;59616;52.170;5.386;2023-02-28T05:16:34;9.73;;;2.38;;
70800;SDS011;59616;52.170;5.386;2023-02-28T05:19:01;6.72;;;2.00;;
70800;SDS011;59616;52.170;5.386;2023-02-28T05:21:32;5.93;;;1.92;;
70800;SDS011;59616;52.170;5.386;2023-02-28T05:24:01;8.65;;;2.58;;
70800;SDS011;59616;52.170;5.386;2023-02-28T05:26:29;6.25;;;2.25;;
70800;SDS011;59616;52.170;5.386;2023-02-28T05:28:56;6.07;;;2.30;;
70800;SDS011;59616;52.170;5.386;2023-02-28T05:31:23;8.25;;;2.70;;
70800;SDS011;59616;52.170;5.386;2023-02-28T05:33:50;5.43;;;2.00;;
70800;SDS011;59616;52.170;5.386;2023-02-28T05:36:18;7.97;;;2.35;;
70800;SDS011;59616;52.170;5.386;2023-02-28T05:38:46;7.70;;;2.58;;
70800;SDS011;59616;52.170;5.386;2023-02-28T05:41:13;6.63;;;2.22;;
70800;SDS011;59616;52.170;5.386;2023-02-28T05:43:41;6.28;;;2.15;;
70800;SDS011;59616;52.170;5.386;2023-02-28T05:46:09;5.78;;;2.20;;
70800;SDS011;59616;52.170;5.386;2023-02-28T05:48:37;8.48;;;2.50;;
70800;SDS011;59616;52.170;5.386;2023-02-28T05:51:05;6.03;;;2.40;;
70800;SDS011;59616;52.170;5.386;2023-02-28T05:53:32;8.25;;;2.45;;
70800;SDS011;59616;52.170;5.386;2023-02-28T05:56:00;6.13;;;2.10;;
70800;SDS011;59616;52.170;5.386;2023-02-28T05:58:27;7.43;;;2.30;;
70800;SDS011;59616;52.170;5.386;2023-02-28T06:00:57;6.55;;;2.38;;
70800;SDS011;59616;52.170;5.386;2023-02-28T06:03:25;8.02;;;2.70;;
70800;SDS011;59616;52.170;5.386;2023-02-28T06:05:52;7.80;;;2.53;;
70800;SDS011;59616;52.170;5.386;2023-02-28T06:08:20;7.43;;;2.63;;
70800;SDS011;59616;52.170;5.386;2023-02-28T06:10:47;9.20;;;2.60;;
70800;SDS011;59616;52.170;5.386;2023-02-28T06:13:14;5.88;;;2.35;;
70800;SDS011;59616;52.170;5.386;2023-02-28T06:15:41;7.55;;;2.40;;
70800;SDS011;59616;52.170;5.386;2023-02-28T06:18:08;8.13;;;3.03;;
70800;SDS011;59616;52.170;5.386;2023-02-28T06:23:02;7.55;;;2.40;;
70800;SDS011;59616;52.170;5.386;2023-02-28T06:25:30;8.88;;;2.50;;
70800;SDS011;59616;52.170;5.386;2023-02-28T06:30:23;6.65;;;2.60;;
70800;SDS011;59616;52.170;5.386;2023-02-28T06:32:53;9.00;;;2.80;;
70800;SDS011;59616;52.170;5.386;2023-02-28T06:35:20;9.85;;;3.05;;
70800;SDS011;59616;52.170;5.386;2023-02-28T06:37:47;7.25;;;2.78;;
70800;SDS011;59616;52.170;5.386;2023-02-28T06:40:15;10.98;;;3.15;;
70800;SDS011;59616;52.170;5.386;2023-02-28T06:42:42;9.75;;;2.92;;
70800;SDS011;59616;52.170;5.386;2023-02-28T06:45:10;8.77;;;2.78;;
70800;SDS011;59616;52.170;5.386;2023-02-28T06:47:37;8.15;;;2.90;;
70800;SDS011;59616;52.170;5.386;2023-02-28T06:50:05;8.27;;;2.78;;
70800;SDS011;59616;52.170;5.386;2023-02-28T06:52:33;9.07;;;2.70;;
70800;SDS011;59616;52.170;5.386;2023-02-28T06:55:02;7.75;;;3.05;;
70800;SDS011;59616;52.170;5.386;2023-02-28T06:57:30;8.13;;;2.83;;
70800;SDS011;59616;52.170;5.386;2023-02-28T06:59:58;6.53;;;3.05;;
70800;SDS011;59616;52.170;5.386;2023-02-28T07:02:25;8.88;;;3.38;;
70800;SDS011;59616;52.170;5.386;2023-02-28T07:04:52;7.88;;;2.85;;
70800;SDS011;59616;52.170;5.386;2023-02-28T07:07:20;7.68;;;2.88;;
70800;SDS011;59616;52.170;5.386;2023-02-28T07:09:47;9.32;;;2.97;;
70800;SDS011;59616;52.170;5.386;2023-02-28T07:12:14;9.13;;;3.60;;
70800;SDS011;59616;52.170;5.386;2023-02-28T07:14:41;9.82;;;3.65;;
70800;SDS011;59616;52.170;5.386;2023-02-28T07:17:09;8.52;;;3.00;;
70800;SDS011;59616;52.170;5.386;2023-02-28T07:19:38;7.78;;;3.10;;
70800;SDS011;59616;52.170;5.386;2023-02-28T07:22:06;7.45;;;3.10;;
70800;SDS011;59616;52.170;5.386;2023-02-28T07:24:33;10.65;;;3.88;;
70800;SDS011;59616;52.170;5.386;2023-02-28T07:27:00;9.88;;;3.65;;
70800;SDS011;59616;52.170;5.386;2023-02-28T07:29:27;8.95;;;3.40;;
70800;SDS011;59616;52.170;5.386;2023-02-28T07:31:55;11.70;;;3.90;;
70800;SDS011;59616;52.170;5.386;2023-02-28T07:34:22;7.68;;;3.08;;
70800;SDS011;59616;52.170;5.386;2023-02-28T07:36:52;9.23;;;2.75;;
70800;SDS011;59616;52.170;5.386;2023-02-28T07:39:20;8.43;;;3.28;;
70800;SDS011;59616;52.170;5.386;2023-02-28T07:41:47;7.97;;;2.90;;
70800;SDS011;59616;52.170;5.386;2023-02-28T07:44:14;10.23;;;3.17;;
70800;SDS011;59616;52.170;5.386;2023-02-28T07:46:42;9.35;;;2.85;;
70800;SDS011;59616;52.170;5.386;2023-02-28T07:49:09;8.75;;;2.63;;
70800;SDS011;59616;52.170;5.386;2023-02-28T07:51:36;11.30;;;3.58;;
70800;SDS011;59616;52.170;5.386;2023-02-28T07:54:03;7.82;;;3.13;;
70800;SDS011;59616;52.170;5.386;2023-02-28T07:56:31;11.52;;;3.20;;
70800;SDS011;59616;52.170;5.386;2023-02-28T07:58:58;7.07;;;2.78;;
70800;SDS011;59616;52.170;5.386;2023-02-28T08:01:25;11.60;;;3.70;;
70800;SDS011;59616;52.170;5.386;2023-02-28T08:03:53;9.50;;;3.35;;
70800;SDS011;59616;52.170;5.386;2023-02-28T08:06:21;11.48;;;3.97;;
70800;SDS011;59616;52.170;5.386;2023-02-28T08:08:49;11.48;;;2.95;;
70800;SDS011;59616;52.170;5.386;2023-02-28T08:11:16;9.50;;;3.33;;
70800;SDS011;59616;52.170;5.386;2023-02-28T08:13:44;15.35;;;5.40;;
70800;SDS011;59616;52.170;5.386;2023-02-28T08:16:12;14.88;;;4.75;;
70800;SDS011;59616;52.170;5.386;2023-02-28T08:18:43;9.90;;;4.13;;
70800;SDS011;59616;52.170;5.386;2023-02-28T08:21:11;8.55;;;3.25;;
70800;SDS011;59616;52.170;5.386;2023-02-28T08:23:38;7.22;;;2.63;;
70800;SDS011;59616;52.170;5.386;2023-02-28T08:26:05;8.85;;;3.15;;
70800;SDS011;59616;52.170;5.386;2023-02-28T08:28:33;8.30;;;3.10;;
70800;SDS011;59616;52.170;5.386;2023-02-28T08:31:00;8.40;;;3.10;;
70800;SDS011;59616;52.170;5.386;2023-02-28T08:33:27;7.05;;;3.20;;
70800;SDS011;59616;52.170;5.386;2023-02-28T08:35:55;6.97;;;2.80;;
70800;SDS011;59616;52.170;5.386;2023-02-28T08:38:22;8.35;;;2.92;;
70800;SDS011;59616;52.170;5.386;2023-02-28T08:40:50;7.70;;;2.85;;
70800;SDS011;59616;52.170;5.386;2023-02-28T08:43:17;7.60;;;2.95;;
70800;SDS011;59616;52.170;5.386;2023-02-28T08:45:44;8.88;;;3.00;;
70800;SDS011;59616;52.170;5.386;2023-02-28T08:48:11;8.68;;;2.83;;
70800;SDS011;59616;52.170;5.386;2023-02-28T08:50:39;7.75;;;2.90;;
70800;SDS011;59616;52.170;5.386;2023-02-28T08:53:06;9.13;;;2.92;;
70800;SDS011;59616;52.170;5.386;2023-02-28T08:55:34;8.40;;;2.78;;
70800;SDS011;59616;52.170;5.386;2023-02-28T08:58:01;6.47;;;2.60;;
70800;SDS011;59616;52.170;5.386;2023-02-28T09:00:28;7.22;;;3.15;;
70800;SDS011;59616;52.170;5.386;2023-02-28T09:02:55;6.85;;;2.78;;
70800;SDS011;59616;52.170;5.386;2023-02-28T09:05:22;6.38;;;2.60;;
70800;SDS011;59616;52.170;5.386;2023-02-28T09:07:49;6.53;;;2.42;;
70800;SDS011;59616;52.170;5.386;2023-02-28T09:10:17;7.60;;;2.80;;
70800;SDS011;59616;52.170;5.386;2023-02-28T09:12:44;5.78;;;2.50;;
70800;SDS011;59616;52.170;5.386;2023-02-28T09:15:13;6.32;;;2.40;;
70800;SDS011;59616;52.170;5.386;2023-02-28T09:17:40;9.07;;;2.33;;
70800;SDS011;59616;52.170;5.386;2023-02-28T09:20:09;6.90;;;2.80;;
70800;SDS011;59616;52.170;5.386;2023-02-28T09:22:37;6.95;;;2.05;;
70800;SDS011;59616;52.170;5.386;2023-02-28T09:25:04;6.35;;;2.30;;
70800;SDS011;59616;52.170;5.386;2023-02-28T09:27:31;7.57;;;2.58;;
70800;SDS011;59616;52.170;5.386;2023-02-28T09:29:58;5.95;;;2.38;;
70800;SDS011;59616;52.170;5.386;2023-02-28T09:32:25;6.25;;;2.20;;
70800;SDS011;59616;52.170;5.386;2023-02-28T09:34:53;5.10;;;1.80;;
70800;SDS011;59616;52.170;5.386;2023-02-28T09:37:20;6.03;;;2.17;;
70800;SDS011;59616;52.170;5.386;2023-02-28T09:39:47;5.03;;;1.58;;
70800;SDS011;59616;52.170;5.386;2023-02-28T09:42:18;5.53;;;1.63;;
70800;SDS011;59616;52.170;5.386;2023-02-28T09:44:48;4.20;;;1.70;;
70800;SDS011;59616;52.170;5.386;2023-02-28T09:47:18;6.38;;;1.55;;
70800;SDS011;59616;52.170;5.386;2023-02-28T09:49:48;3.67;;;1.60;;
70800;SDS011;59616;52.170;5.386;2023-02-28T09:52:19;4.45;;;1.63;;
70800;SDS011;59616;52.170;5.386;2023-02-28T09:54:48;3.72;;;1.42;;
70800;SDS011;59616;52.170;5.386;2023-02-28T09:57:20;4.70;;;1.48;;
70800;SDS011;59616;52.170;5.386;2023-02-28T10:05:11;3.15;;;1.38;;
70800;SDS011;59616;52.170;5.386;2023-02-28T10:12:44;5.72;;;1.67;;
70800;SDS011;59616;52.170;5.386;2023-02-28T10:15:15;4.22;;;1.52;;
70800;SDS011;59616;52.170;5.386;2023-02-28T10:17:44;5.80;;;1.80;;
70800;SDS011;59616;52.170;5.386;2023-02-28T10:20:26;3.78;;;1.60;;
70800;SDS011;59616;52.170;5.386;2023-02-28T10:23:02;4.40;;;1.55;;
70800;SDS011;59616;52.170;5.386;2023-02-28T10:25:34;4.30;;;1.75;;
70800;SDS011;59616;52.170;5.386;2023-02-28T10:28:09;4.10;;;1.40;;
70800;SDS011;59616;52.170;5.386;2023-02-28T10:30:38;4.40;;;1.67;;
70800;SDS011;59616;52.170;5.386;2023-02-28T10:33:08;3.88;;;1.58;;
70800;SDS011;59616;52.170;5.386;2023-02-28T10:35:44;4.40;;;1.50;;
70800;SDS011;59616;52.170;5.386;2023-02-28T10:38:16;3.72;;;1.60;;
70800;SDS011;59616;52.170;5.386;2023-02-28T10:40:44;4.10;;;1.48;;
70800;SDS011;59616;52.170;5.386;2023-02-28T10:46:24;3.13;;;1.20;;
70800;SDS011;59616;52.170;5.386;2023-02-28T10:48:40;3.55;;;1.40;;
70800;SDS011;59616;52.170;5.386;2023-02-28T10:51:12;3.63;;;1.60;;
70800;SDS011;59616;52.170;5.386;2023-02-28T10:53:45;3.83;;;1.55;;
70800;SDS011;59616;52.170;5.386;2023-02-28T10:56:27;3.67;;;1.60;;
70800;SDS011;59616;52.170;5.386;2023-02-28T11:01:56;3.55;;;1.40;;
70800;SDS011;59616;52.170;5.386;2023-02-28T11:06:59;2.80;;;1.40;;
70800;SDS011;59616;52.170;5.386;2023-02-28T11:09:31;3.42;;;1.30;;
70800;SDS011;59616;52.170;5.386;2023-02-28T11:12:01;3.63;;;1.67;;
70800;SDS011;59616;52.170;5.386;2023-02-28T11:14:29;4.80;;;1.55;;
70800;SDS011;59616;52.170;5.386;2023-02-28T11:17:11;5.03;;;1.83;;
70800;SDS011;59616;52.170;5.386;2023-02-28T11:19:40;4.00;;;1.77;;
70800;SDS011;59616;52.170;5.386;2023-02-28T11:22:10;5.60;;;1.80;;
70800;SDS011;59616;52.170;5.386;2023-02-28T11:24:44;4.80;;;1.63;;
70800;SDS011;59616;52.170;5.386;2023-02-28T11:27:26;4.97;;;1.73;;
70800;SDS011;59616;52.170;5.386;2023-02-28T11:29:53;5.80;;;1.60;;
70800;SDS011;59616;52.170;5.386;2023-02-28T11:32:24;4.13;;;1.60;;
70800;SDS011;59616;52.170;5.386;2023-02-28T11:35:02;3.97;;;1.95;;
70800;SDS011;59616;52.170;5.386;2023-02-28T11:37:30;5.72;;;1.65;;
70800;SDS011;59616;52.170;5.386;2023-02-28T11:39:58;5.65;;;1.50;;
70800;SDS011;59616;52.170;5.386;2023-02-28T11:42:29;5.28;;;1.75;;
70800;SDS011;59616;52.170;5.386;2023-02-28T11:52:56;3.55;;;1.40;;
70800;SDS011;59616;52.170;5.386;2023-02-28T11:55:27;3.50;;;1.50;;
70800;SDS011;59616;52.170;5.386;2023-02-28T11:58:16;3.88;;;1.45;;
70800;SDS011;59616;52.170;5.386;2023-02-28T12:00:54;3.95;;;1.40;;
70800;SDS011;59616;52.170;5.386;2023-02-28T12:06:14;4.35;;;1.70;;
70800;SDS011;59616;52.170;5.386;2023-02-28T12:11:19;4.82;;;1.60;;
70800;SDS011;59616;52.170;5.386;2023-02-28T12:18:59;4.68;;;1.73;;
70800;SDS011;59616;52.170;5.386;2023-02-28T12:21:44;5.18;;;1.70;;
70800;SDS011;59616;52.170;5.386;2023-02-28T12:26:58;4.15;;;1.40;;
70800;SDS011;59616;52.170;5.386;2023-02-28T12:29:34;4.15;;;1.50;;
70800;SDS011;59616;52.170;5.386;2023-02-28T12:32:22;5.13;;;1.52;;
70800;SDS011;59616;52.170;5.386;2023-02-28T12:35:04;3.60;;;1.23;;
70800;SDS011;59616;52.170;5.386;2023-02-28T12:37:34;2.55;;;1.40;;
70800;SDS011;59616;52.170;5.386;2023-02-28T12:40:05;6.38;;;1.50;;
70800;SDS011;59616;52.170;5.386;2023-02-28T12:42:35;4.13;;;1.55;;
70800;SDS011;59616;52.170;5.386;2023-02-28T12:47:37;4.47;;;1.67;;
70800;SDS011;59616;52.170;5.386;2023-02-28T12:50:06;4.72;;;1.60;;
70800;SDS011;59616;52.170;5.386;2023-02-28T12:55:21;3.05;;;1.52;;
70800;SDS011;59616;52.170;5.386;2023-02-28T13:00:33;4.78;;;1.70;;
70800;SDS011;59616;52.170;5.386;2023-02-28T13:08:26;5.88;;;1.67;;
70800;SDS011;59616;52.170;5.386;2023-02-28T13:11:04;3.95;;;1.45;;
70800;SDS011;59616;52.170;5.386;2023-02-28T13:13:44;4.88;;;1.70;;
70800;SDS011;59616;52.170;5.386;2023-02-28T13:16:12;4.28;;;1.70;;
70800;SDS011;59616;52.170;5.386;2023-02-28T13:18:40;4.18;;;1.60;;
70800;SDS011;59616;52.170;5.386;2023-02-28T13:21:21;3.90;;;1.50;;
70800;SDS011;59616;52.170;5.386;2023-02-28T13:26:22;6.47;;;2.08;;
70800;SDS011;59616;52.170;5.386;2023-02-28T13:39:49;5.10;;;1.60;;
70800;SDS011;59616;52.170;5.386;2023-02-28T13:50:19;5.00;;;2.08;;
70800;SDS011;59616;52.170;5.386;2023-02-28T13:55:25;4.43;;;1.73;;
70800;SDS011;59616;52.170;5.386;2023-02-28T14:03:23;3.75;;;1.55;;
70800;SDS011;59616;52.170;5.386;2023-02-28T14:08:45;4.57;;;1.60;;
70800;SDS011;59616;52.170;5.386;2023-02-28T14:11:37;5.30;;;1.85;;
70800;SDS011;59616;52.170;5.386;2023-02-28T14:14:03;6.20;;;2.10;;
70800;SDS011;59616;52.170;5.386;2023-02-28T14:16:38;5.07;;;1.67;;
70800;SDS011;59616;52.170;5.386;2023-02-28T14:19:13;6.28;;;1.90;;
70800;SDS011;59616;52.170;5.386;2023-02-28T14:32:35;6.80;;;1.90;;
70800;SDS011;59616;52.170;5.386;2023-02-28T14:35:05;4.93;;;1.90;;
70800;SDS011;59616;52.170;5.386;2023-02-28T14:37:40;4.78;;;1.70;;
70800;SDS011;59616;52.170;5.386;2023-02-28T14:40:12;3.63;;;1.70;;
70800;SDS011;59616;52.170;5.386;2023-02-28T14:42:45;5.00;;;1.77;;
70800;SDS011;59616;52.170;5.386;2023-02-28T14:45:19;4.28;;;1.60;;
70800;SDS011;59616;52.170;5.386;2023-02-28T14:47:47;4.72;;;1.80;;
70800;SDS011;59616;52.170;5.386;2023-02-28T14:50:20;5.30;;;1.90;;
70800;SDS011;59616;52.170;5.386;2023-02-28T14:52:50;3.58;;;1.45;;
70800;SDS011;59616;52.170;5.386;2023-02-28T14:55:18;5.25;;;2.00;;
70800;SDS011;59616;52.170;5.386;2023-02-28T14:57:57;5.40;;;1.92;;
70800;SDS011;59616;52.170;5.386;2023-02-28T15:00:28;4.32;;;1.50;;
70800;SDS011;59616;52.170;5.386;2023-02-28T15:02:56;5.10;;;1.80;;
70800;SDS011;59616;52.170;5.386;2023-02-28T15:05:25;4.20;;;1.75;;
70800;SDS011;59616;52.170;5.386;2023-02-28T15:10:56;8.75;;;1.70;;
70800;SDS011;59616;52.170;5.386;2023-02-28T15:13:28;5.97;;;2.00;;
70800;SDS011;59616;52.170;5.386;2023-02-28T15:15:58;4.70;;;1.60;;
70800;SDS011;59616;52.170;5.386;2023-02-28T15:18:41;4.28;;;1.77;;
70800;SDS011;59616;52.170;5.386;2023-02-28T15:21:15;3.75;;;1.60;;
70800;SDS011;59616;52.170;5.386;2023-02-28T15:23:46;4.43;;;1.80;;
70800;SDS011;59616;52.170;5.386;2023-02-28T15:26:17;4.18;;;1.70;;
70800;SDS011;59616;52.170;5.386;2023-02-28T15:28:46;4.50;;;1.70;;
70800;SDS011;59616;52.170;5.386;2023-02-28T15:31:19;4.95;;;1.73;;
70800;SDS011;59616;52.170;5.386;2023-02-28T15:33:54;5.30;;;1.80;;
70800;SDS011;59616;52.170;5.386;2023-02-28T15:36:23;6.03;;;1.98;;
70800;SDS011;59616;52.170;5.386;2023-02-28T15:38:54;4.38;;;1.70;;
70800;SDS011;59616;52.170;5.386;2023-02-28T15:41:34;4.30;;;1.60;;
70800;SDS011;59616;52.170;5.386;2023-02-28T15:49:37;6.18;;;1.88;;
70800;SDS011;59616;52.170;5.386;2023-02-28T15:52:12;6.80;;;1.85;;
70800;SDS011;59616;52.170;5.386;2023-02-28T15:54:40;3.65;;;1.65;;
70800;SDS011;59616;52.170;5.386;2023-02-28T15:57:17;7.10;;;2.05;;
70800;SDS011;59616;52.170;5.386;2023-02-28T15:59:49;5.78;;;1.90;;
70800;SDS011;59616;52.170;5.386;2023-02-28T16:02:17;4.75;;;1.90;;
70800;SDS011;59616;52.170;5.386;2023-02-28T16:04:56;6.00;;;2.08;;
70800;SDS011;59616;52.170;5.386;2023-02-28T16:07:23;8.70;;;1.88;;
70800;SDS011;59616;52.170;5.386;2023-02-28T16:09:50;5.50;;;1.77;;
70800;SDS011;59616;52.170;5.386;2023-02-28T16:12:18;4.82;;;1.88;;
70800;SDS011;59616;52.170;5.386;2023-02-28T16:14:47;5.65;;;1.95;;
70800;SDS011;59616;52.170;5.386;2023-02-28T16:17:19;5.97;;;1.95;;
70800;SDS011;59616;52.170;5.386;2023-02-28T16:19:47;6.50;;;1.80;;
70800;SDS011;59616;52.170;5.386;2023-02-28T16:22:14;4.18;;;1.83;;
70800;SDS011;59616;52.170;5.386;2023-02-28T16:24:41;5.65;;;2.10;;
70800;SDS011;59616;52.170;5.386;2023-02-28T16:27:19;5.50;;;1.92;;
70800;SDS011;59616;52.170;5.386;2023-02-28T16:29:47;6.32;;;2.30;;
70800;SDS011;59616;52.170;5.386;2023-02-28T16:32:15;5.50;;;1.83;;
70800;SDS011;59616;52.170;5.386;2023-02-28T16:34:43;4.57;;;1.70;;
70800;SDS011;59616;52.170;5.386;2023-02-28T16:37:17;6.25;;;2.00;;
70800;SDS011;59616;52.170;5.386;2023-02-28T16:39:44;7.30;;;2.20;;
70800;SDS011;59616;52.170;5.386;2023-02-28T16:42:16;5.47;;;1.92;;
70800;SDS011;59616;52.170;5.386;2023-02-28T16:44:47;4.38;;;1.95;;
70800;SDS011;59616;52.170;5.386;2023-02-28T16:47:14;5.45;;;1.90;;
70800;SDS011;59616;52.170;5.386;2023-02-28T16:49:42;5.30;;;2.10;;
70800;SDS011;59616;52.170;5.386;2023-02-28T16:52:09;6.65;;;2.13;;
70800;SDS011;59616;52.170;5.386;2023-02-28T16:54:38;5.70;;;2.10;;
70800;SDS011;59616;52.170;5.386;2023-02-28T16:57:05;6.97;;;2.75;;
70800;SDS011;59616;52.170;5.386;2023-02-28T16:59:33;9.50;;;2.38;;
70800;SDS011;59616;52.170;5.386;2023-02-28T17:02:00;5.93;;;2.25;;
70800;SDS011;59616;52.170;5.386;2023-02-28T17:04:27;6.45;;;2.50;;
70800;SDS011;59616;52.170;5.386;2023-02-28T17:06:55;9.50;;;2.67;;
70800;SDS011;59616;52.170;5.386;2023-02-28T17:09:23;7.25;;;2.17;;
70800;SDS011;59616;52.170;5.386;2023-02-28T17:12:06;6.05;;;2.30;;
70800;SDS011;59616;52.170;5.386;2023-02-28T17:14:34;6.03;;;1.83;;
70800;SDS011;59616;52.170;5.386;2023-02-28T17:17:01;7.05;;;2.47;;
70800;SDS011;59616;52.170;5.386;2023-02-28T17:19:28;8.20;;;2.05;;
70800;SDS011;59616;52.170;5.386;2023-02-28T17:21:55;6.03;;;2.30;;
70800;SDS011;59616;52.170;5.386;2023-02-28T17:24:23;7.25;;;2.72;;
70800;SDS011;59616;52.170;5.386;2023-02-28T17:26:56;7.43;;;2.40;;
70800;SDS011;59616;52.170;5.386;2023-02-28T17:29:23;6.35;;;2.60;;
70800;SDS011;59616;52.170;5.386;2023-02-28T17:31:51;7.70;;;2.60;;
70800;SDS011;59616;52.170;5.386;2023-02-28T17:34:18;7.32;;;2.53;;
70800;SDS011;59616;52.170;5.386;2023-02-28T17:36:46;7.97;;;2.50;;